Hay River Airport
CYHY : now visible

Airfield :











YOU CAN JOIN US ON...

 
LOGIN :

Register | Disclaimer

   EN    FR    IT 

 









Legend :    VFR   Marginal VFR   IFR   Intensive IFR   Very Intensive IFR
Visi :
Ceiling :
>= 8 km
>= 3000ft
5 to 8 km
1000 to 3000 ft
1500m to 5 km
500 to 1000 ft
800 to 1500m
200 to 500 ft
< 800m
< 200 ft
Symbols :   Thunderstorms  Fog  Heavy snow  Heavy precipitations  Wind > 20 kt






- Airport Elevation : 543 ft
- IATA code : YHY


CYHY - Hay River

CURRENT METAR :
  • 180500Z 19004KT 15SM FEW040 FEW210 BKN230 09/00 A2989 RMK SC1CS2CI4 SC TR SLP131

EXPIRED METARs :
  • 180400Z 17005KT 15SM FEW040 SCT210 BKN230 11/00 A2988 RMK SC1CS2CI3 SLP127
  • 180300Z 12004KT 15SM FEW040 SCT220 BKN240 12/M01 A2988 RMK SC1CS3CI3 SLP126
  • 180200Z 08004KT 050V120 15SM FEW040 SCT230 BKN240 12/M00 A2988 RMK SC1CS2CI3 SLP126
  • 180100Z 06004KT 340V130 15SM FEW040 SCT230 BKN240 13/M01 A2988 RMK SC1CS2CI3 SLP126

TAF TAF CYHY
Valid from the 18 at 06:00 until the 18 at 18:00 UTC


180540Z 1806/1818 19005KT P6SM FEW040 BKN230 RMK NXT FCST BY 181200Z
CZEG FIR / North America



MET'MAP, your aeronautical weather chart ! - Copyright ORBIFLY December 2007 - Disclaimer

ORBIFLY MET'MAP TEAM :

Programming & Development : Alexandra Zaïnal
Original concept : Baudouin d'Aumeries
Technical & hardware support : Manuel Goepfert
Assistance : Marc-Olivier Méhu




SOURCES & CREDITS :

   NOAA       Earth
Advisory